createdAt,value
2017-10-12T00:00:54.551Z,13.43
2017-10-12T00:02:07.103Z,13.46
2017-10-12T00:03:19.352Z,13.36
2017-10-12T00:04:31.922Z,13.45
2017-10-12T00:05:44.165Z,13.37
2017-10-12T00:06:56.413Z,13.45
2017-10-12T00:08:08.334Z,13.4
2017-10-12T00:09:20.581Z,13.36
2017-10-12T00:10:33.148Z,13.33
2017-10-12T00:11:45.063Z,13.36
2017-10-12T00:12:57.641Z,13.33
2017-10-12T00:14:09.887Z,13.36
2017-10-12T00:15:22.457Z,13.36
2017-10-12T00:16:34.409Z,13.39
2017-10-12T00:17:46.999Z,13.3
2017-10-12T00:18:59.568Z,13.37
2017-10-12T00:20:11.839Z,13.4
2017-10-12T00:21:24.412Z,13.37
2017-10-12T00:22:36.979Z,13.42
2017-10-12T00:23:49.532Z,13.37
2017-10-12T00:25:02.101Z,13.4
2017-10-12T00:26:14.659Z,13.43
2017-10-12T00:27:27.212Z,13.42
2017-10-12T00:28:39.766Z,13.45
2017-10-12T00:29:52.057Z,13.36
2017-10-12T00:31:04.301Z,13.4
2017-10-12T00:32:16.545Z,13.45
2017-10-12T00:33:29.367Z,13.33
2017-10-12T00:34:41.937Z,13.4
2017-10-12T00:35:54.508Z,13.3
2017-10-12T00:37:06.771Z,13.31
2017-10-12T00:38:18.999Z,13.37
2017-10-12T00:39:31.252Z,13.3
2017-10-12T00:40:43.515Z,13.36
2017-10-12T00:41:56.087Z,13.43
2017-10-12T00:43:08.331Z,13.45
2017-10-12T00:44:21.145Z,13.43
2017-10-12T00:45:33.401Z,13.36
2017-10-12T00:46:45.669Z,13.46
2017-10-12T00:47:57.589Z,13.42
2017-10-12T00:49:10.162Z,13.43
2017-10-12T00:50:22.730Z,13.43
2017-10-12T00:51:34.979Z,13.36
2017-10-12T00:52:47.249Z,13.43
2017-10-12T00:53:59.818Z,13.46
2017-10-12T00:55:12.082Z,13.4
2017-10-12T00:56:24.634Z,13.49
2017-10-12T00:57:36.897Z,13.4
2017-10-12T00:58:49.475Z,13.39
2017-10-12T01:00:01.721Z,13.39
2017-10-12T01:01:13.990Z,13.39
2017-10-12T01:02:26.537Z,13.42
2017-10-12T01:03:39.108Z,13.43
2017-10-12T01:04:51.679Z,13.43
2017-10-12T01:06:03.623Z,13.37
2017-10-12T01:07:15.844Z,13.4
2017-10-12T01:08:28.414Z,13.33
2017-10-12T01:09:40.686Z,13.37
2017-10-12T01:10:53.257Z,13.5
2017-10-12T01:12:05.502Z,13.37
2017-10-12T01:13:18.072Z,13.37
2017-10-12T01:14:30.643Z,13.4
2017-10-12T01:15:43.216Z,13.4
2017-10-12T01:16:55.776Z,13.42
2017-10-12T01:18:07.705Z,13.37
2017-10-12T01:19:19.957Z,13.33
2017-10-12T01:20:32.522Z,13.33
2017-10-12T01:21:44.767Z,13.36
2017-10-12T01:22:57.338Z,13.27
2017-10-12T01:24:09.910Z,13.23
2017-10-12T01:25:22.479Z,13.2
2017-10-12T01:26:34.724Z,13.17
2017-10-12T01:27:46.974Z,13.16
2017-10-12T01:28:59.540Z,13.11
2017-10-12T01:30:12.112Z,13.12
2017-10-12T01:31:24.682Z,13.03
2017-10-12T01:32:36.285Z,12.98
2017-10-12T01:33:48.552Z,12.95
2017-10-12T01:35:01.119Z,12.99
2017-10-12T01:36:13.364Z,12.94
2017-10-12T01:37:25.609Z,12.9
2017-10-12T01:38:37.556Z,12.87
2017-10-12T01:39:50.126Z,12.81
2017-10-12T01:41:02.072Z,12.81
2017-10-12T01:42:14.322Z,12.69
2017-10-12T01:43:26.893Z,12.7
2017-10-12T01:44:39.152Z,12.72
2017-10-12T01:45:51.380Z,12.76
2017-10-12T01:47:03.952Z,12.69
2017-10-12T01:48:15.911Z,12.73
2017-10-12T01:49:28.161Z,12.68
2017-10-12T01:50:40.730Z,12.69
2017-10-12T01:51:53.286Z,12.65
2017-10-12T01:53:05.208Z,12.66
2017-10-12T01:54:17.449Z,12.55
2017-10-12T01:55:29.720Z,12.57
2017-10-12T01:56:41.967Z,12.55
2017-10-12T01:57:54.543Z,12.51
2017-10-12T01:59:07.082Z,12.44
2017-10-12T02:00:19.581Z,12.45
2017-10-12T02:01:32.148Z,12.37
2017-10-12T02:02:44.720Z,12.35
2017-10-12T02:03:57.296Z,12.32
2017-10-12T02:05:09.884Z,12.28
2017-10-12T02:06:22.431Z,12.26
2017-10-12T02:07:35.000Z,12.2
2017-10-12T02:08:47.573Z,12.23
2017-10-12T02:09:59.793Z,12.25
2017-10-12T02:11:12.364Z,12.14
2017-10-12T02:12:24.633Z,12.17
2017-10-12T02:13:36.879Z,12.18
2017-10-12T02:14:49.451Z,12.02
2017-10-12T02:16:01.696Z,12.07
2017-10-12T02:17:14.290Z,12.08
2017-10-12T02:18:26.512Z,12.02
2017-10-12T02:19:38.433Z,12.03
2017-10-12T02:20:50.677Z,12
2017-10-12T02:22:02.924Z,11.96
2017-10-12T02:23:15.496Z,11.88
2017-10-12T02:24:28.065Z,11.97
2017-10-12T02:25:40.312Z,11.88
2017-10-12T02:26:52.232Z,11.89
2017-10-12T02:28:04.819Z,11.88
2017-10-12T02:29:17.397Z,11.77
2017-10-12T02:30:29.667Z,11.81
2017-10-12T02:31:41.590Z,11.77
2017-10-12T02:32:54.153Z,11.81
2017-10-12T02:34:06.704Z,11.73
2017-10-12T02:35:19.281Z,11.76
2017-10-12T02:36:31.523Z,11.83
2017-10-12T02:37:44.092Z,11.68
2017-10-12T02:38:56.337Z,11.71
2017-10-12T02:40:08.602Z,11.7
2017-10-12T02:41:21.180Z,11.73
2017-10-12T02:42:33.441Z,11.76
2017-10-12T02:43:47.046Z,11.74
2017-10-12T02:44:59.309Z,11.63
2017-10-12T02:46:11.562Z,11.63
2017-10-12T02:47:24.116Z,11.65
2017-10-12T02:48:36.379Z,11.65
2017-10-12T02:49:48.948Z,11.56
2017-10-12T02:51:01.195Z,11.53
2017-10-12T02:52:13.466Z,11.58
2017-10-12T02:53:26.037Z,11.56
2017-10-12T02:54:37.634Z,11.56
2017-10-12T02:55:50.226Z,11.59
2017-10-12T02:57:02.498Z,11.6
2017-10-12T02:58:15.071Z,11.58
2017-10-12T02:59:27.639Z,11.52
2017-10-12T03:00:40.209Z,11.56
2017-10-12T03:01:52.462Z,11.49
2017-10-12T03:03:05.027Z,11.53
2017-10-12T03:04:17.272Z,11.55
2017-10-12T03:05:29.510Z,11.53
2017-10-12T03:06:42.068Z,11.44
2017-10-12T03:07:54.626Z,11.55
2017-10-12T03:09:07.179Z,11.41
2017-10-12T03:10:19.098Z,11.49
2017-10-12T03:11:31.020Z,11.41
2017-10-12T03:12:42.946Z,11.41
2017-10-12T03:13:55.511Z,11.38
2017-10-12T03:15:08.058Z,11.51
2017-10-12T03:16:19.978Z,11.48
2017-10-12T03:17:31.898Z,11.51
2017-10-12T03:18:44.168Z,11.51
2017-10-12T03:19:56.088Z,11.49
2017-10-12T03:21:08.011Z,11.44
2017-10-12T03:22:20.281Z,11.41
2017-10-12T03:23:32.526Z,11.41
2017-10-12T03:24:44.490Z,11.4
2017-10-12T03:25:56.742Z,11.4
2017-10-12T03:27:08.988Z,11.35
2017-10-12T03:28:21.534Z,11.4
2017-10-12T03:29:34.123Z,11.48
2017-10-12T03:30:46.690Z,11.52
2017-10-12T03:31:58.920Z,11.44
2017-10-12T03:33:11.492Z,11.43
2017-10-12T03:34:23.737Z,11.52
2017-10-12T03:35:35.658Z,11.44
2017-10-12T03:36:47.954Z,11.55
2017-10-12T03:38:00.824Z,11.58
2017-10-12T03:39:13.395Z,11.53
2017-10-12T03:40:25.965Z,11.59
2017-10-12T03:41:38.536Z,11.7
2017-10-12T03:42:50.785Z,11.73
2017-10-12T03:44:03.353Z,11.67
2017-10-12T03:45:14.974Z,11.76
2017-10-12T03:46:27.545Z,11.73
2017-10-12T03:47:39.792Z,11.77
2017-10-12T03:48:52.614Z,11.81
2017-10-12T03:50:04.550Z,11.85
2017-10-12T03:51:17.101Z,11.89
2017-10-12T03:52:29.347Z,11.86
2017-10-12T03:53:41.918Z,11.97
2017-10-12T03:54:54.489Z,12
2017-10-12T03:56:06.434Z,12
2017-10-12T03:57:18.682Z,12.15
2017-10-12T03:58:30.943Z,12.18
2017-10-12T03:59:43.173Z,12.14
2017-10-12T04:00:55.434Z,12.29
2017-10-12T04:02:07.688Z,12.35
2017-10-12T04:03:20.276Z,12.33
2017-10-12T04:04:32.829Z,12.36
2017-10-12T04:05:45.075Z,12.43
2017-10-12T04:06:57.645Z,12.44
2017-10-12T04:08:09.916Z,12.48
2017-10-12T04:09:21.836Z,12.53
2017-10-12T04:10:34.307Z,12.58
2017-10-12T04:11:46.230Z,12.62
2017-10-12T04:12:58.147Z,12.62
2017-10-12T04:14:10.698Z,12.65
2017-10-12T04:15:23.266Z,12.65
2017-10-12T04:16:35.186Z,12.73
2017-10-12T04:17:47.107Z,12.7
2017-10-12T04:18:59.676Z,12.9
2017-10-12T04:20:12.248Z,12.84
2017-10-12T04:21:24.421Z,12.8
2017-10-12T04:22:36.666Z,12.8
2017-10-12T04:23:48.909Z,12.84
2017-10-12T04:25:00.847Z,12.95
2017-10-12T04:26:12.776Z,12.94
2017-10-12T04:27:24.400Z,12.98
2017-10-12T04:28:36.992Z,13.01
2017-10-12T04:29:49.255Z,13.06
2017-10-12T04:31:01.833Z,12.95
2017-10-12T04:32:14.328Z,13.13
2017-10-12T04:33:26.576Z,13.17
2017-10-12T04:34:38.494Z,13.11
2017-10-12T04:35:50.766Z,13.16
2017-10-12T04:37:03.029Z,13.23
2017-10-12T04:38:15.282Z,13.16
2017-10-12T04:39:27.854Z,13.24
2017-10-12T04:40:40.124Z,13.28
2017-10-12T04:41:52.694Z,13.28
2017-10-12T04:43:05.543Z,13.36
2017-10-12T04:44:18.110Z,13.36
2017-10-12T04:45:30.056Z,13.28
2017-10-12T04:46:41.976Z,13.31
2017-10-12T04:47:54.222Z,13.26
2017-10-12T04:49:06.497Z,13.33
2017-10-12T04:50:19.062Z,13.31
2017-10-12T04:51:31.311Z,13.28
2017-10-12T04:52:43.887Z,13.23
2017-10-12T04:53:56.477Z,13.23
2017-10-12T04:55:09.046Z,13.24
2017-10-12T04:56:21.616Z,13.23
2017-10-12T04:57:33.870Z,13.26
2017-10-12T04:58:46.434Z,13.24
2017-10-12T04:59:58.677Z,13.17
2017-10-12T05:01:10.926Z,13.21
2017-10-12T05:02:23.200Z,13.19
2017-10-12T05:03:35.440Z,13.26
2017-10-12T05:04:47.961Z,13.17
2017-10-12T05:06:00.532Z,13.2
2017-10-12T05:07:12.778Z,13.2
2017-10-12T05:08:24.398Z,13.19
2017-10-12T05:09:36.643Z,13.16
2017-10-12T05:10:48.890Z,13.17
2017-10-12T05:12:01.462Z,13.12
2017-10-12T05:13:13.705Z,13.28
2017-10-12T05:14:25.954Z,13.12
2017-10-12T05:15:38.522Z,13.28
2017-10-12T05:16:51.093Z,13.17
2017-10-12T05:18:03.339Z,13.19
2017-10-12T05:19:15.584Z,13.31
2017-10-12T05:20:27.847Z,13.23
2017-10-12T05:21:38.505Z,13.19
2017-10-12T05:22:50.745Z,13.23
2017-10-12T05:24:02.992Z,13.26
2017-10-12T05:25:14.913Z,13.28
2017-10-12T05:26:27.732Z,13.26
2017-10-12T05:27:39.984Z,13.17
2017-10-12T05:28:52.548Z,13.24
2017-10-12T05:30:05.096Z,13.27
2017-10-12T05:31:17.342Z,13.27
2017-10-12T05:32:29.260Z,13.24
2017-10-12T05:33:41.208Z,13.27
2017-10-12T05:34:53.454Z,13.19
2017-10-12T05:36:06.050Z,13.31
2017-10-12T05:37:18.599Z,13.36
2017-10-12T05:38:30.857Z,13.3
2017-10-12T05:39:43.113Z,13.36
2017-10-12T05:40:55.057Z,13.39
2017-10-12T05:42:07.627Z,13.45
2017-10-12T05:43:19.248Z,13.4
2017-10-12T05:44:31.494Z,13.39
2017-10-12T05:45:43.781Z,13.46
2017-10-12T05:46:56.333Z,13.47
2017-10-12T05:48:09.155Z,13.54
2017-10-12T05:49:21.404Z,13.52
2017-10-12T05:50:33.971Z,13.45
2017-10-12T05:51:46.540Z,13.58
2017-10-12T05:52:58.462Z,13.57
2017-10-12T05:54:11.038Z,13.55
2017-10-12T05:55:23.282Z,13.58
2017-10-12T05:56:35.199Z,13.62
2017-10-12T05:57:47.123Z,13.62
2017-10-12T05:58:59.691Z,13.7
2017-10-12T06:00:12.260Z,13.65
2017-10-12T06:01:24.834Z,13.65
2017-10-12T06:02:36.753Z,13.75
2017-10-12T06:03:48.679Z,13.73
2017-10-12T06:05:01.254Z,13.76
2017-10-12T06:06:13.816Z,13.7
2017-10-12T06:07:25.766Z,13.82
2017-10-12T06:08:37.714Z,13.85
2017-10-12T06:09:49.977Z,13.76
2017-10-12T06:11:02.549Z,13.76
2017-10-12T06:12:14.793Z,13.71
2017-10-12T06:13:27.367Z,13.68
2017-10-12T06:14:39.291Z,13.62
2017-10-12T06:15:51.529Z,13.68
2017-10-12T06:17:03.801Z,13.73
2017-10-12T06:18:16.379Z,13.62
2017-10-12T06:19:28.642Z,13.55
2017-10-12T06:20:40.886Z,13.55
2017-10-12T06:21:53.460Z,13.58
2017-10-12T06:23:05.704Z,13.55
2017-10-12T06:24:17.949Z,13.54
2017-10-12T06:25:30.520Z,13.58
2017-10-12T06:26:43.090Z,13.58
2017-10-12T06:27:55.362Z,13.55
2017-10-12T06:29:07.958Z,13.5
2017-10-12T06:30:20.209Z,13.57
2017-10-12T06:31:32.452Z,13.57
2017-10-12T06:32:44.697Z,13.57
2017-10-12T06:33:56.319Z,13.6
2017-10-12T06:35:08.886Z,13.61
2017-10-12T06:36:21.131Z,13.62
2017-10-12T06:37:33.703Z,13.68
2017-10-12T06:38:45.949Z,13.64
2017-10-12T06:39:58.245Z,13.73
2017-10-12T06:41:10.505Z,13.78
2017-10-12T06:42:22.751Z,13.8
2017-10-12T06:43:35.304Z,13.8
2017-10-12T06:44:47.551Z,13.85
2017-10-12T06:46:00.122Z,13.82
2017-10-12T06:47:12.067Z,13.83
2017-10-12T06:48:24.012Z,13.86
2017-10-12T06:49:36.587Z,13.86
2017-10-12T06:50:48.829Z,13.97
2017-10-12T06:52:01.398Z,13.82
2017-10-12T06:53:13.647Z,13.93
2017-10-12T06:54:26.215Z,14
2017-10-12T06:55:38.462Z,14
2017-10-12T06:56:51.033Z,14.01
2017-10-12T06:58:03.277Z,14.13
2017-10-12T06:59:15.524Z,14.05
2017-10-12T07:00:27.770Z,14.03
2017-10-12T07:01:40.346Z,14.05
2017-10-12T07:02:52.914Z,14.08
2017-10-12T07:04:05.156Z,14.11
2017-10-12T07:05:16.752Z,14.12
2017-10-12T07:06:29.001Z,14.18
2017-10-12T07:07:41.567Z,14.22
2017-10-12T07:08:54.139Z,14.2
2017-10-12T07:10:05.763Z,14.23
2017-10-12T07:11:17.680Z,14.2
2017-10-12T07:12:30.250Z,14.3
2017-10-12T07:13:42.821Z,14.26
2017-10-12T07:14:54.742Z,14.25
2017-10-12T07:16:07.316Z,14.25
2017-10-12T07:17:19.578Z,14.34
2017-10-12T07:18:31.829Z,14.33
2017-10-12T07:19:44.402Z,14.37
2017-10-12T07:20:56.321Z,14.36
2017-10-12T07:22:08.565Z,14.41
2017-10-12T07:23:21.137Z,14.4
2017-10-12T07:24:33.057Z,14.43
2017-10-12T07:25:45.628Z,14.48
2017-10-12T07:26:58.198Z,14.41
2017-10-12T07:28:10.769Z,14.53
2017-10-12T07:29:23.339Z,14.48
2017-10-12T07:30:35.278Z,14.51
2017-10-12T07:31:47.831Z,14.51
2017-10-12T07:33:00.077Z,14.53
2017-10-12T07:34:12.021Z,14.55
2017-10-12T07:35:24.267Z,14.55
2017-10-12T07:36:36.514Z,14.58
2017-10-12T07:37:49.084Z,14.53
2017-10-12T07:39:01.655Z,14.51
2017-10-12T07:40:14.224Z,14.61
2017-10-12T07:41:26.171Z,14.66
2017-10-12T07:42:38.417Z,14.66
2017-10-12T07:43:50.337Z,14.74
2017-10-12T07:45:02.583Z,14.78
2017-10-12T07:46:15.153Z,14.78
2017-10-12T07:47:27.405Z,14.92
2017-10-12T07:48:39.670Z,14.86
2017-10-12T07:49:52.250Z,14.74
2017-10-12T07:51:04.828Z,14.79
2017-10-12T07:52:17.088Z,14.74
2017-10-12T07:53:29.670Z,14.77
2017-10-12T07:54:41.898Z,14.68
2017-10-12T07:55:54.168Z,14.82
2017-10-12T07:57:06.115Z,14.86
2017-10-12T07:58:18.312Z,14.9
2017-10-12T07:59:30.880Z,14.93
2017-10-12T08:00:43.451Z,15.04
2017-10-12T08:01:54.752Z,15.08
2017-10-12T08:03:07.319Z,15.11
2017-10-12T08:04:19.888Z,15.1
2017-10-12T08:05:32.151Z,15.19
2017-10-12T08:06:44.404Z,15.22
2017-10-12T08:07:56.976Z,15.27
2017-10-12T08:09:08.922Z,15.29
2017-10-12T08:10:21.496Z,15.29
2017-10-12T08:11:34.062Z,15.33
2017-10-12T08:12:46.633Z,15.35
2017-10-12T08:13:58.881Z,15.41
2017-10-12T08:15:11.152Z,15.5
2017-10-12T08:16:23.395Z,15.55
2017-10-12T08:17:35.965Z,15.62
2017-10-12T08:18:47.910Z,15.62
2017-10-12T08:20:00.482Z,15.66
2017-10-12T08:21:12.727Z,15.78
2017-10-12T08:22:25.300Z,15.76
2017-10-12T08:23:37.868Z,15.85
2017-10-12T08:24:50.457Z,15.75
2017-10-12T08:26:03.009Z,15.9
2017-10-12T08:27:14.930Z,15.9
2017-10-12T08:28:27.527Z,15.73
2017-10-12T08:29:39.790Z,15.83
2017-10-12T08:30:52.360Z,15.84
2017-10-12T08:32:04.939Z,15.83
2017-10-12T08:33:16.876Z,15.8
2017-10-12T08:34:29.123Z,15.8
2017-10-12T08:35:41.067Z,15.8
2017-10-12T08:36:53.648Z,15.81
2017-10-12T08:38:05.891Z,15.81
2017-10-12T08:39:17.838Z,15.81
2017-10-12T08:40:30.432Z,15.84
2017-10-12T08:41:42.353Z,15.87
2017-10-12T08:42:54.597Z,15.75
2017-10-12T08:44:06.519Z,15.9
2017-10-12T08:45:18.765Z,15.81
2017-10-12T08:46:31.339Z,15.88
2017-10-12T08:47:43.906Z,15.9
2017-10-12T08:48:55.828Z,15.94
2017-10-12T08:50:08.415Z,15.94
2017-10-12T08:51:20.686Z,15.94
2017-10-12T08:52:32.640Z,15.9
2017-10-12T08:53:45.236Z,16
2017-10-12T08:54:57.798Z,16.06
2017-10-12T08:56:10.052Z,16.12
2017-10-12T08:57:22.297Z,16.13
2017-10-12T08:58:35.135Z,16.21
2017-10-12T08:59:47.389Z,16.21
2017-10-12T09:00:59.633Z,16.29
2017-10-12T09:02:11.572Z,16.28
2017-10-12T09:03:23.499Z,16.26
2017-10-12T09:04:35.745Z,16.29
2017-10-12T09:05:47.696Z,16.34
2017-10-12T09:07:00.264Z,16.37
2017-10-12T09:08:12.850Z,16.44
2017-10-12T09:09:25.104Z,16.5
2017-10-12T09:10:37.350Z,16.57
2017-10-12T09:11:49.596Z,16.58
2017-10-12T09:13:01.865Z,16.73
2017-10-12T09:14:14.435Z,16.76
2017-10-12T09:15:26.682Z,16.68
2017-10-12T09:16:38.928Z,16.84
2017-10-12T09:17:51.498Z,16.87
2017-10-12T09:19:03.444Z,16.83
2017-10-12T09:20:16.015Z,16.89
2017-10-12T09:21:27.984Z,16.89
2017-10-12T09:22:40.556Z,16.87
2017-10-12T09:23:52.818Z,16.95
2017-10-12T09:25:05.371Z,16.92
2017-10-12T09:26:17.943Z,17.01
2017-10-12T09:27:30.213Z,16.99
2017-10-12T09:28:42.784Z,16.91
2017-10-12T09:29:55.029Z,16.91
2017-10-12T09:31:07.604Z,16.95
2017-10-12T09:32:19.546Z,16.94
2017-10-12T09:33:32.117Z,17.07
2017-10-12T09:34:44.717Z,17.09
2017-10-12T09:35:57.282Z,16.97
2017-10-12T09:37:09.204Z,17.01
2017-10-12T09:38:21.149Z,17.09
2017-10-12T09:39:33.087Z,17.14
2017-10-12T09:40:45.641Z,17.23
2017-10-12T09:41:57.886Z,17.23
2017-10-12T09:43:09.511Z,17.22
2017-10-12T09:44:21.778Z,17.28
2017-10-12T09:45:33.699Z,17.23
2017-10-12T09:46:46.319Z,17.17
2017-10-12T09:47:58.264Z,17.1
2017-10-12T09:49:10.509Z,17.09
2017-10-12T09:50:22.756Z,16.99
2017-10-12T09:51:35.026Z,16.97
2017-10-12T09:52:47.272Z,16.87
2017-10-12T09:53:59.843Z,16.69
2017-10-12T09:55:12.413Z,16.57
2017-10-12T09:56:24.334Z,16.44
2017-10-12T09:57:36.855Z,16.25
2017-10-12T09:58:49.426Z,16.16
2017-10-12T10:00:01.047Z,15.92
2017-10-12T10:01:12.993Z,15.75
2017-10-12T10:02:25.262Z,15.63
2017-10-12T10:03:37.183Z,15.41
2017-10-12T10:04:49.754Z,15.33
2017-10-12T10:06:02.025Z,15.1
2017-10-12T10:07:14.297Z,15.02
2017-10-12T10:08:26.546Z,14.96
2017-10-12T10:09:39.112Z,14.78
2017-10-12T10:10:51.681Z,14.77
2017-10-12T10:12:03.627Z,14.56
2017-10-12T10:13:16.198Z,14.67
2017-10-12T10:14:28.769Z,14.61
2017-10-12T10:15:41.015Z,14.56
2017-10-12T10:16:53.276Z,14.49
2017-10-12T10:18:05.535Z,14.48
2017-10-12T10:19:18.350Z,14.4
2017-10-12T10:20:30.922Z,14.37
2017-10-12T10:21:43.491Z,14.36
2017-10-12T10:22:55.738Z,14.4
2017-10-12T10:24:08.309Z,14.4
2017-10-12T10:25:20.580Z,14.4
2017-10-12T10:26:33.175Z,14.41
2017-10-12T10:27:45.097Z,14.43
2017-10-12T10:28:57.667Z,14.44
2017-10-12T10:30:10.262Z,14.43
2017-10-12T10:31:22.832Z,14.48
2017-10-12T10:32:35.079Z,14.44
2017-10-12T10:33:47.655Z,14.44
2017-10-12T10:34:59.594Z,14.56
2017-10-12T10:36:11.841Z,14.59
2017-10-12T10:37:24.436Z,14.45
2017-10-12T10:38:37.007Z,14.61
2017-10-12T10:39:49.577Z,14.59
2017-10-12T10:41:01.823Z,14.63
2017-10-12T10:42:13.445Z,14.63
2017-10-12T10:43:26.042Z,14.66
2017-10-12T10:44:38.610Z,14.68
2017-10-12T10:45:50.872Z,14.66
2017-10-12T10:47:03.102Z,14.62
2017-10-12T10:48:15.039Z,14.61
2017-10-12T10:49:27.267Z,14.62
2017-10-12T10:50:39.513Z,14.63
2017-10-12T10:51:51.758Z,14.73
2017-10-12T10:53:03.678Z,14.7
2017-10-12T10:54:16.281Z,14.79
2017-10-12T10:55:28.546Z,14.77
2017-10-12T10:56:40.491Z,14.78
2017-10-12T10:57:52.737Z,14.9
2017-10-12T10:59:05.308Z,14.92
2017-10-12T11:00:17.881Z,14.97
2017-10-12T11:01:30.505Z,15.05
2017-10-12T11:02:43.020Z,15.08
2017-10-12T11:03:54.967Z,15.12
2017-10-12T11:05:07.536Z,15.08
2017-10-12T11:06:20.135Z,15.08
2017-10-12T11:07:32.702Z,15.15
2017-10-12T11:08:45.273Z,15.18
2017-10-12T11:09:57.224Z,15.26
2017-10-12T11:11:09.817Z,15.32
2017-10-12T11:12:22.060Z,15.3
2017-10-12T11:13:34.629Z,15.33
2017-10-12T11:14:46.893Z,15.36
2017-10-12T11:15:59.464Z,15.27
2017-10-12T11:17:11.393Z,15.41
2017-10-12T11:18:23.330Z,15.41
2017-10-12T11:19:35.884Z,15.37
2017-10-12T11:20:48.129Z,15.33
2017-10-12T11:22:00.375Z,15.3
2017-10-12T11:23:12.620Z,15.35
2017-10-12T11:24:24.543Z,15.32
2017-10-12T11:25:36.787Z,15.23
2017-10-12T11:26:49.033Z,15.3
2017-10-12T11:28:00.654Z,15.23
2017-10-12T11:29:12.906Z,15.29
2017-10-12T11:30:24.512Z,15.22
2017-10-12T11:31:37.091Z,15.3
2017-10-12T11:32:49.335Z,15.39
2017-10-12T11:34:01.582Z,15.36
2017-10-12T11:35:13.852Z,15.41
2017-10-12T11:36:26.121Z,15.43
2017-10-12T11:37:38.042Z,15.45
2017-10-12T11:38:50.289Z,15.48
2017-10-12T11:40:02.559Z,15.52
2017-10-12T11:41:14.848Z,15.65
2017-10-12T11:42:27.400Z,15.66
2017-10-12T11:43:39.972Z,15.66
2017-10-12T11:44:52.546Z,15.75
2017-10-12T11:46:04.831Z,15.76
2017-10-12T11:47:16.434Z,15.75
2017-10-12T11:48:28.678Z,15.87
2017-10-12T11:49:41.251Z,15.91
2017-10-12T11:50:53.513Z,16.03
2017-10-12T11:52:05.767Z,16.05
2017-10-12T11:53:18.336Z,16.16
2017-10-12T11:54:30.584Z,16.1
2017-10-12T11:55:42.502Z,16.13
2017-10-12T11:56:55.074Z,16.06
2017-10-12T11:58:07.336Z,16.08
2017-10-12T11:59:19.589Z,16.03
2017-10-12T12:00:32.167Z,16
2017-10-12T12:01:44.732Z,15.99
2017-10-12T12:02:56.978Z,16.02
2017-10-12T12:04:09.223Z,15.96
2017-10-12T12:05:21.144Z,16.02
2017-10-12T12:06:33.714Z,16.03
2017-10-12T12:07:45.977Z,16.13
2017-10-12T12:08:58.555Z,16.06
2017-10-12T12:10:10.177Z,16.1
2017-10-12T12:11:22.420Z,16.18
2017-10-12T12:12:34.668Z,16.22
2017-10-12T12:13:47.266Z,16.17
2017-10-12T12:14:59.208Z,16.13
2017-10-12T12:16:11.784Z,16.16
2017-10-12T12:17:24.029Z,16.08
2017-10-12T12:18:35.949Z,16.22
2017-10-12T12:19:47.866Z,16.28
2017-10-12T12:21:00.112Z,16.31
2017-10-12T12:22:12.708Z,16.37
2017-10-12T12:23:24.957Z,16.41
2017-10-12T12:24:37.523Z,16.31
2017-10-12T12:25:50.097Z,16.32
2017-10-12T12:27:02.017Z,16.41
2017-10-12T12:28:14.586Z,16.5
2017-10-12T12:29:26.532Z,16.43
2017-10-12T12:30:38.476Z,16.58
2017-10-12T12:31:51.050Z,16.62
2017-10-12T12:33:03.294Z,16.65
2017-10-12T12:34:14.914Z,16.72
2017-10-12T12:35:27.485Z,16.69
2017-10-12T12:36:39.755Z,16.79
2017-10-12T12:37:52.332Z,16.84
2017-10-12T12:39:04.913Z,16.83
2017-10-12T12:40:17.446Z,16.86
2017-10-12T12:41:30.014Z,16.89
2017-10-12T12:42:42.585Z,16.89
2017-10-12T12:43:54.855Z,16.94
2017-10-12T12:45:07.425Z,16.91
2017-10-12T12:46:19.702Z,16.89
2017-10-12T12:47:31.940Z,16.97
2017-10-12T12:48:44.186Z,16.99
2017-10-12T12:49:56.437Z,16.98
2017-10-12T12:51:09.044Z,16.89
2017-10-12T12:52:20.973Z,16.83
2017-10-12T12:53:33.573Z,16.73
2017-10-12T12:54:45.841Z,16.8
2017-10-12T12:55:58.411Z,16.77
2017-10-12T12:57:10.356Z,16.79
2017-10-12T12:58:22.619Z,16.76
2017-10-12T12:59:35.173Z,16.74
2017-10-12T13:00:47.424Z,16.82
2017-10-12T13:01:59.690Z,16.74
2017-10-12T13:03:11.936Z,16.82
2017-10-12T13:04:24.205Z,16.79
2017-10-12T13:05:36.480Z,16.77
2017-10-12T13:06:48.125Z,16.73
2017-10-12T13:08:00.693Z,16.73
2017-10-12T13:09:12.938Z,16.66
2017-10-12T13:10:25.185Z,16.51
2017-10-12T13:11:37.758Z,16.43
2017-10-12T13:12:50.026Z,16.36
2017-10-12T13:14:02.295Z,16.34
2017-10-12T13:15:14.543Z,16.34
2017-10-12T13:16:27.114Z,16.43
2017-10-12T13:17:39.700Z,16.29
2017-10-12T13:18:52.270Z,16.31
2017-10-12T13:20:04.526Z,16.32
2017-10-12T13:21:16.794Z,16.4
2017-10-12T13:22:29.040Z,16.31
2017-10-12T13:23:41.290Z,16.28
2017-10-12T13:24:53.857Z,16.13
2017-10-12T13:26:06.102Z,16.21
2017-10-12T13:27:18.346Z,16.1
2017-10-12T13:28:30.917Z,16.16
2017-10-12T13:29:42.544Z,16.02
2017-10-12T13:30:54.810Z,16.03
2017-10-12T13:32:07.405Z,16.06
2017-10-12T13:33:19.980Z,16
2017-10-12T13:34:32.546Z,15.91
2017-10-12T13:35:45.118Z,15.91
2017-10-12T13:36:57.688Z,15.91
2017-10-12T13:38:09.959Z,15.94
2017-10-12T13:39:22.528Z,15.98
2017-10-12T13:40:34.150Z,15.9
2017-10-12T13:41:46.396Z,15.98
2017-10-12T13:42:58.965Z,15.98
2017-10-12T13:44:11.215Z,16.03
2017-10-12T13:45:23.150Z,16.02
2017-10-12T13:46:35.077Z,16.09
2017-10-12T13:47:47.027Z,16.1
2017-10-12T13:48:59.269Z,16.13
2017-10-12T13:50:11.515Z,16.16
2017-10-12T13:51:23.761Z,16.25
2017-10-12T13:52:36.324Z,16.24
2017-10-12T13:53:48.580Z,16.21
2017-10-12T13:55:01.148Z,16.28
2017-10-12T13:56:13.420Z,16.22
2017-10-12T13:57:25.990Z,16.24
2017-10-12T13:58:38.560Z,16.31
2017-10-12T13:59:51.155Z,16.26
2017-10-12T14:01:03.726Z,16.26
2017-10-12T14:02:15.974Z,16.26
2017-10-12T14:03:28.542Z,16.25
2017-10-12T14:04:40.787Z,16.26
2017-10-12T14:05:53.034Z,16.12
2017-10-12T14:07:05.621Z,16.09
2017-10-12T14:08:18.204Z,16.16
2017-10-12T14:09:30.770Z,16.12
2017-10-12T14:10:42.715Z,16.18
2017-10-12T14:11:54.965Z,16.17
2017-10-12T14:13:06.583Z,16.13
2017-10-12T14:14:18.829Z,16.1
2017-10-12T14:15:31.399Z,16.05
2017-10-12T14:16:43.995Z,16.16
2017-10-12T14:17:56.167Z,16.12
2017-10-12T14:19:08.411Z,16.13
2017-10-12T14:20:21.008Z,16.13
2017-10-12T14:21:33.576Z,16.12
2017-10-12T14:22:45.822Z,16.22
2017-10-12T14:23:58.397Z,16.24
2017-10-12T14:25:10.339Z,16.21
2017-10-12T14:26:22.910Z,16.13
2017-10-12T14:27:35.480Z,16.08
2017-10-12T14:28:47.725Z,16.1
2017-10-12T14:30:00.297Z,16.05
2017-10-12T14:31:12.559Z,15.98
2017-10-12T14:32:24.814Z,15.9
2017-10-12T14:33:36.737Z,15.94
2017-10-12T14:34:48.354Z,15.83
2017-10-12T14:36:00.599Z,15.75
2017-10-12T14:37:12.878Z,15.7
2017-10-12T14:38:25.488Z,15.72
2017-10-12T14:39:37.737Z,15.67
2017-10-12T14:40:49.982Z,15.54
2017-10-12T14:42:02.556Z,15.51
2017-10-12T14:43:15.150Z,15.43
2017-10-12T14:44:27.394Z,15.37
2017-10-12T14:45:39.641Z,15.32
2017-10-12T14:46:51.914Z,15.32
2017-10-12T14:48:04.178Z,15.25
2017-10-12T14:49:15.780Z,15.26
2017-10-12T14:50:28.375Z,15.15
2017-10-12T14:51:40.944Z,15.08
2017-10-12T14:52:53.189Z,15.04
2017-10-12T14:54:05.435Z,15.07
2017-10-12T14:55:17.073Z,15.02
2017-10-12T14:56:29.319Z,15
2017-10-12T14:57:41.573Z,14.93
2017-10-12T14:58:53.817Z,14.94
2017-10-12T15:00:06.387Z,14.96
2017-10-12T15:01:18.991Z,14.93
2017-10-12T15:02:31.580Z,14.9
2017-10-12T15:03:43.824Z,14.86
2017-10-12T15:04:56.088Z,14.89
2017-10-12T15:06:08.661Z,14.82
2017-10-12T15:07:21.228Z,14.78
2017-10-12T15:08:33.800Z,14.92
2017-10-12T15:09:46.058Z,14.78
2017-10-12T15:10:57.999Z,14.89
2017-10-12T15:12:10.269Z,14.86
2017-10-12T15:13:22.515Z,14.77
2017-10-12T15:14:34.786Z,14.73
2017-10-12T15:15:47.032Z,14.74
2017-10-12T15:16:59.602Z,14.71
2017-10-12T15:18:11.523Z,14.63
2017-10-12T15:19:23.168Z,14.67
2017-10-12T15:20:35.788Z,14.71
2017-10-12T15:21:47.710Z,14.62
2017-10-12T15:23:00.280Z,14.59
2017-10-12T15:24:12.526Z,14.68
2017-10-12T15:25:24.775Z,14.7
2017-10-12T15:26:37.017Z,14.58
2017-10-12T15:27:49.263Z,14.49
2017-10-12T15:29:01.835Z,14.61
2017-10-12T15:30:14.403Z,14.56
2017-10-12T15:31:26.650Z,14.53
2017-10-12T15:32:39.221Z,14.52
2017-10-12T15:33:51.465Z,14.43
2017-10-12T15:35:04.039Z,14.44
2017-10-12T15:36:16.606Z,14.4